createdAt,value
2022-11-04T00:00:52.665Z,78.75
2022-11-04T00:01:52.640Z,79.05
2022-11-04T00:02:52.695Z,79.05
2022-11-04T00:03:52.573Z,78.85
2022-11-04T00:04:52.656Z,78.85
2022-11-04T00:05:52.554Z,78.85
2022-11-04T00:06:52.535Z,78.85
2022-11-04T00:07:52.545Z,79.05
2022-11-04T00:08:52.535Z,79.05
2022-11-04T00:09:52.530Z,79.05
2022-11-04T00:10:52.529Z,78.85
2022-11-04T00:11:52.493Z,78.75
2022-11-04T00:12:52.464Z,78.64
2022-11-04T00:13:52.457Z,78.78
2022-11-04T00:14:52.447Z,78.64
2022-11-04T00:15:52.428Z,78.78
2022-11-04T00:16:52.539Z,78.99
2022-11-04T00:17:52.412Z,78.78
2022-11-04T00:18:52.398Z,79.09
2022-11-04T00:19:52.393Z,79.61
2022-11-04T00:20:52.444Z,78.68
2022-11-04T00:21:52.368Z,78.99
2022-11-04T00:22:52.364Z,78.78
2022-11-04T00:23:52.334Z,78.99
2022-11-04T00:24:52.363Z,78.99
2022-11-04T00:25:52.387Z,79.09
2022-11-04T00:26:52.314Z,78.78
2022-11-04T00:27:52.336Z,79.13
2022-11-04T00:28:52.309Z,78.78
2022-11-04T00:29:52.271Z,78.78
2022-11-04T00:30:52.263Z,78.78
2022-11-04T00:31:52.306Z,78.78
2022-11-04T00:32:52.243Z,78.78
2022-11-04T00:33:52.257Z,79.40
2022-11-04T00:34:52.233Z,78.99
2022-11-04T00:35:52.267Z,78.89
2022-11-04T00:36:52.206Z,78.78
2022-11-04T00:37:52.184Z,78.78
2022-11-04T00:38:52.173Z,79.09
2022-11-04T00:39:52.160Z,78.78
2022-11-04T00:40:52.355Z,78.78
2022-11-04T00:41:52.158Z,78.99
2022-11-04T00:42:52.124Z,79.50
2022-11-04T00:43:52.113Z,79.50
2022-11-04T00:44:52.099Z,79.61
2022-11-04T00:45:52.092Z,79.50
2022-11-04T00:46:52.098Z,79.61
2022-11-04T00:47:52.070Z,78.85
2022-11-04T00:48:52.058Z,78.96
2022-11-04T00:49:52.042Z,79.36
2022-11-04T00:50:52.040Z,78.75
2022-11-04T00:51:52.017Z,78.78
2022-11-04T00:52:52.039Z,78.75
2022-11-04T00:53:52.031Z,79.36
2022-11-04T00:54:51.987Z,79.36
2022-11-04T00:55:51.969Z,78.85
2022-11-04T00:56:51.964Z,78.96
2022-11-04T00:57:51.973Z,79.05
2022-11-04T00:58:51.979Z,78.92
2022-11-04T00:59:51.932Z,78.75
2022-11-04T01:00:52.003Z,78.92
2022-11-04T01:01:52.055Z,79.26
2022-11-04T01:02:51.893Z,79.02
2022-11-04T01:03:51.878Z,78.92
2022-11-04T01:04:51.894Z,78.71
2022-11-04T01:05:51.881Z,79.02
2022-11-04T01:06:51.856Z,79.02
2022-11-04T01:07:51.864Z,79.02
2022-11-04T01:08:51.820Z,78.92
2022-11-04T01:09:51.818Z,78.81
2022-11-04T01:10:51.833Z,79.02
2022-11-04T01:11:51.796Z,79.02
2022-11-04T01:12:51.801Z,79.02
2022-11-04T01:13:51.793Z,78.92
2022-11-04T01:14:51.764Z,78.71
2022-11-04T01:15:51.757Z,79.02
2022-11-04T01:16:51.754Z,79.02
2022-11-04T01:17:51.719Z,78.71
2022-11-04T01:18:51.735Z,78.81
2022-11-04T01:19:51.710Z,79.05
2022-11-04T01:20:51.688Z,78.92
2022-11-04T01:21:51.684Z,78.85
2022-11-04T01:22:51.701Z,78.85
2022-11-04T01:23:51.659Z,79.05
2022-11-04T01:24:51.644Z,78.71
2022-11-04T01:25:51.638Z,78.71
2022-11-04T01:26:51.622Z,78.92
2022-11-04T01:27:51.625Z,79.05
2022-11-04T01:28:51.621Z,78.64
2022-11-04T01:29:51.607Z,79.16
2022-11-04T01:30:51.575Z,78.96
2022-11-04T01:31:51.581Z,78.96
2022-11-04T01:32:51.556Z,78.75
2022-11-04T01:33:51.546Z,78.75
2022-11-04T01:34:51.562Z,79.05
2022-11-04T01:35:51.525Z,79.05
2022-11-04T01:36:51.510Z,79.05
2022-11-04T01:37:51.515Z,79.05
2022-11-04T01:38:51.499Z,79.05
2022-11-04T01:39:51.475Z,78.85
2022-11-04T01:40:51.503Z,78.75
2022-11-04T01:41:51.487Z,78.78
2022-11-04T01:42:51.445Z,78.99
2022-11-04T01:43:51.434Z,78.68
2022-11-04T01:44:51.435Z,78.89
2022-11-04T01:45:51.430Z,78.99
2022-11-04T01:46:51.412Z,78.78
2022-11-04T01:47:51.388Z,78.78
2022-11-04T01:48:51.370Z,78.89
2022-11-04T01:49:51.382Z,78.99
2022-11-04T01:50:51.350Z,79.40
2022-11-04T01:51:51.342Z,79.33
2022-11-04T01:52:51.377Z,79.30
2022-11-04T01:53:51.314Z,79.61
2022-11-04T01:54:51.306Z,79.61
2022-11-04T01:55:51.312Z,79.09
2022-11-04T01:56:51.285Z,79.61
2022-11-04T01:57:51.266Z,79.30
2022-11-04T01:58:51.273Z,79.75
2022-11-04T01:59:51.256Z,79.71
2022-11-04T02:00:51.233Z,79.61
2022-11-04T02:01:51.450Z,79.61
2022-11-04T02:02:51.211Z,79.30
2022-11-04T02:03:51.195Z,79.30
2022-11-04T02:04:51.204Z,79.09
2022-11-04T02:05:51.177Z,79.09
2022-11-04T02:06:51.168Z,79.61
2022-11-04T02:07:51.156Z,79.61
2022-11-04T02:08:51.142Z,79.40
2022-11-04T02:09:51.132Z,79.40
2022-11-04T02:10:51.175Z,79.40
2022-11-04T02:11:51.140Z,79.50
2022-11-04T02:12:51.110Z,79.57
2022-11-04T02:13:51.088Z,79.47
2022-11-04T02:14:51.094Z,79.47
2022-11-04T02:15:51.069Z,79.47
2022-11-04T02:16:51.080Z,79.30
2022-11-04T02:17:51.067Z,79.30
2022-11-04T02:18:51.033Z,79.57
2022-11-04T02:19:51.053Z,79.36
2022-11-04T02:20:51.011Z,79.71
2022-11-04T02:21:50.992Z,79.36
2022-11-04T02:22:51.000Z,78.85
2022-11-04T02:23:50.998Z,78.96
2022-11-04T02:24:50.960Z,78.96
2022-11-04T02:25:50.954Z,78.85
2022-11-04T02:26:50.937Z,78.78
2022-11-04T02:27:50.957Z,78.99
2022-11-04T02:28:50.930Z,78.99
2022-11-04T02:29:50.898Z,78.89
2022-11-04T02:30:50.894Z,78.75
2022-11-04T02:31:50.872Z,78.96
2022-11-04T02:32:50.870Z,78.99
2022-11-04T02:33:50.914Z,78.78
2022-11-04T02:34:50.878Z,78.99
2022-11-04T02:35:50.851Z,78.68
2022-11-04T02:36:50.821Z,79.09
2022-11-04T02:37:50.915Z,79.19
2022-11-04T02:38:50.814Z,78.99
2022-11-04T02:39:50.785Z,79.40
2022-11-04T02:40:50.811Z,79.61
2022-11-04T02:41:50.786Z,79.09
2022-11-04T02:42:50.760Z,78.78
2022-11-04T02:43:50.740Z,79.30
2022-11-04T02:44:50.732Z,79.50
2022-11-04T02:45:50.717Z,79.61
2022-11-04T02:46:50.864Z,79.61
2022-11-04T02:47:50.693Z,79.40
2022-11-04T02:48:50.701Z,79.61
2022-11-04T02:49:50.761Z,79.61
2022-11-04T02:50:50.657Z,79.50
2022-11-04T02:51:50.651Z,79.61
2022-11-04T02:52:51.531Z,79.40
2022-11-04T02:53:50.628Z,79.40
2022-11-04T02:54:50.615Z,78.99
2022-11-04T02:55:50.603Z,79.40
2022-11-04T02:56:50.594Z,78.78
2022-11-04T02:57:50.575Z,79.50
2022-11-04T02:58:50.649Z,79.50
2022-11-04T02:59:50.559Z,79.09
2022-11-04T03:00:50.600Z,79.61
2022-11-04T03:01:50.651Z,79.61
2022-11-04T03:02:50.519Z,79.50
2022-11-04T03:03:50.528Z,79.19
2022-11-04T03:04:50.520Z,79.50
2022-11-04T03:05:50.509Z,79.50
2022-11-04T03:06:50.481Z,79.40
2022-11-04T03:07:50.469Z,79.40
2022-11-04T03:08:50.458Z,79.36
2022-11-04T03:09:50.443Z,79.40
2022-11-04T03:10:50.453Z,79.40
2022-11-04T03:11:50.482Z,79.36
2022-11-04T03:12:50.416Z,79.47
2022-11-04T03:13:50.460Z,79.30
2022-11-04T03:14:50.384Z,79.36
2022-11-04T03:15:50.384Z,79.16
2022-11-04T03:16:50.384Z,79.16
2022-11-04T03:17:50.357Z,79.36
2022-11-04T03:18:50.350Z,79.16
2022-11-04T03:19:50.326Z,79.26
2022-11-04T03:20:50.350Z,79.16
2022-11-04T03:21:50.328Z,79.26
2022-11-04T03:22:50.326Z,79.36
2022-11-04T03:23:50.287Z,79.36
2022-11-04T03:24:50.268Z,79.77
2022-11-04T03:25:50.266Z,79.77
2022-11-04T03:26:50.248Z,79.88
2022-11-04T03:27:50.243Z,79.77
2022-11-04T03:28:50.269Z,79.88
2022-11-04T03:29:50.211Z,79.77
2022-11-04T03:30:50.203Z,79.47
2022-11-04T03:31:50.190Z,79.67
2022-11-04T03:32:50.184Z,79.47
2022-11-04T03:33:50.172Z,79.77
2022-11-04T03:34:50.191Z,79.57
2022-11-04T03:35:50.148Z,79.67
2022-11-04T03:36:50.161Z,79.36
2022-11-04T03:37:50.141Z,79.57
2022-11-04T03:38:50.113Z,79.36
2022-11-04T03:39:50.108Z,79.88
2022-11-04T03:40:50.251Z,79.88
2022-11-04T03:41:50.081Z,80.08
2022-11-04T03:42:50.082Z,80.19
2022-11-04T03:43:50.060Z,80.29
2022-11-04T03:44:50.047Z,80.19
2022-11-04T03:45:50.034Z,80.19
2022-11-04T03:46:50.040Z,80.08
2022-11-04T03:47:50.014Z,80.39
2022-11-04T03:48:50.009Z,80.29
2022-11-04T03:49:49.995Z,80.29
2022-11-04T03:50:49.987Z,80.39
2022-11-04T03:51:49.966Z,80.49
2022-11-04T03:52:49.974Z,80.49
2022-11-04T03:53:49.970Z,80.29
2022-11-04T03:54:49.933Z,80.49
2022-11-04T03:55:49.929Z,80.39
2022-11-04T03:56:50.016Z,80.39
2022-11-04T03:57:49.903Z,80.29
2022-11-04T03:58:49.909Z,80.19
2022-11-04T03:59:49.876Z,80.08
2022-11-04T04:00:49.998Z,80.29
2022-11-04T04:01:49.982Z,79.77
2022-11-04T04:02:49.850Z,79.98
2022-11-04T04:03:49.865Z,80.19
2022-11-04T04:04:49.841Z,79.98
2022-11-04T04:05:49.810Z,79.77
2022-11-04T04:06:49.799Z,79.98
2022-11-04T04:07:49.801Z,79.77
2022-11-04T04:08:49.775Z,79.88
2022-11-04T04:09:49.793Z,80.29
2022-11-04T04:10:49.774Z,80.08
2022-11-04T04:11:49.747Z,80.49
2022-11-04T04:12:49.737Z,80.08
2022-11-04T04:13:49.719Z,80.29
2022-11-04T04:14:49.719Z,79.47
2022-11-04T04:15:49.696Z,80.19
2022-11-04T04:16:49.839Z,80.39
2022-11-04T04:17:49.676Z,80.08
2022-11-04T04:18:54.035Z,81.01
2022-11-04T04:19:50.650Z,81.11
2022-11-04T04:20:49.641Z,80.29
2022-11-04T04:21:49.655Z,81.01
2022-11-04T04:22:49.675Z,81.11
2022-11-04T04:23:49.610Z,81.01
2022-11-04T04:24:49.601Z,79.36
2022-11-04T04:25:49.606Z,81.01
2022-11-04T04:26:49.576Z,80.49
2022-11-04T04:27:49.573Z,80.60
2022-11-04T04:28:49.606Z,80.60
2022-11-04T04:29:49.540Z,80.70
2022-11-04T04:30:49.538Z,80.91
2022-11-04T04:31:49.518Z,80.91
2022-11-04T04:32:49.526Z,79.88
2022-11-04T04:33:49.501Z,80.39
2022-11-04T04:34:49.512Z,80.39
2022-11-04T04:35:49.481Z,80.49
2022-11-04T04:36:49.458Z,80.19
2022-11-04T04:37:49.457Z,79.98
2022-11-04T04:38:49.441Z,80.08
2022-11-04T04:39:49.435Z,80.19
2022-11-04T04:40:49.546Z,80.39
2022-11-04T04:41:49.447Z,80.43
2022-11-04T04:42:49.400Z,80.29
2022-11-04T04:43:49.388Z,80.49
2022-11-04T04:44:49.370Z,80.60
2022-11-04T04:45:49.364Z,80.60
2022-11-04T04:46:49.403Z,80.49
2022-11-04T04:47:49.340Z,80.33
2022-11-04T04:48:49.329Z,80.53
2022-11-04T04:49:49.311Z,80.49
2022-11-04T04:50:49.337Z,80.43
2022-11-04T04:51:49.300Z,80.43
2022-11-04T04:52:49.297Z,80.63
2022-11-04T04:53:49.297Z,80.33
2022-11-04T04:54:49.257Z,80.22
2022-11-04T04:55:49.243Z,79.71
2022-11-04T04:56:49.237Z,79.81
2022-11-04T04:57:49.294Z,80.12
2022-11-04T04:58:49.272Z,79.91
2022-11-04T04:59:49.202Z,79.81
2022-11-04T05:00:49.243Z,80.12
2022-11-04T05:01:49.493Z,80.12
2022-11-04T05:02:49.189Z,80.12
2022-11-04T05:03:49.155Z,81.01
2022-11-04T05:04:49.179Z,81.05
2022-11-04T05:05:49.144Z,80.94
2022-11-04T05:06:49.123Z,80.94
2022-11-04T05:07:49.111Z,80.02
2022-11-04T05:08:49.118Z,79.77
2022-11-04T05:09:49.089Z,79.81
2022-11-04T05:10:49.130Z,80.02
2022-11-04T05:11:49.067Z,80.02
2022-11-04T05:12:49.059Z,80.02
2022-11-04T05:13:49.066Z,80.12
2022-11-04T05:14:49.040Z,79.77
2022-11-04T05:15:49.019Z,80.08
2022-11-04T05:16:49.036Z,80.39
2022-11-04T05:17:48.990Z,80.19
2022-11-04T05:18:48.983Z,80.39
2022-11-04T05:19:48.970Z,80.29
2022-11-04T05:20:48.959Z,80.29
2022-11-04T05:21:48.980Z,80.29
2022-11-04T05:22:48.992Z,80.29
2022-11-04T05:23:48.960Z,80.39
2022-11-04T05:24:48.914Z,80.19
2022-11-04T05:25:48.905Z,80.29
2022-11-04T05:26:48.920Z,80.29
2022-11-04T05:27:48.909Z,80.63
2022-11-04T05:28:48.907Z,80.39
2022-11-04T05:29:48.880Z,80.53
2022-11-04T05:30:48.852Z,80.49
2022-11-04T05:31:48.832Z,80.33
2022-11-04T05:32:48.824Z,80.43
2022-11-04T05:33:48.813Z,80.19
2022-11-04T05:34:48.866Z,80.19
2022-11-04T05:35:48.789Z,80.22
2022-11-04T05:36:48.784Z,80.12
2022-11-04T05:37:48.763Z,80.12
2022-11-04T05:38:48.775Z,80.12
2022-11-04T05:39:48.745Z,80.33
2022-11-04T05:40:48.749Z,80.43
2022-11-04T05:41:48.725Z,80.29
2022-11-04T05:42:48.711Z,80.39
2022-11-04T05:43:48.702Z,80.39
2022-11-04T05:44:48.691Z,80.49
2022-11-04T05:45:48.697Z,80.29
2022-11-04T05:46:48.697Z,80.49
2022-11-04T05:47:48.653Z,80.60
2022-11-04T05:48:48.648Z,80.39
2022-11-04T05:49:48.654Z,80.29
2022-11-04T05:50:48.627Z,80.25
2022-11-04T05:51:48.608Z,80.08
2022-11-04T05:52:48.638Z,79.88
2022-11-04T05:53:48.610Z,79.88
2022-11-04T05:54:48.574Z,79.63
2022-11-04T05:55:48.567Z,79.98
2022-11-04T05:56:48.556Z,79.57
2022-11-04T05:57:48.549Z,79.53
2022-11-04T05:58:48.550Z,79.43
2022-11-04T05:59:48.584Z,79.33
2022-11-04T06:00:48.512Z,79.53
2022-11-04T06:01:48.643Z,79.33
2022-11-04T06:02:48.640Z,79.43
2022-11-04T06:03:48.479Z,79.22
2022-11-04T06:04:48.520Z,79.33
2022-11-04T06:05:48.455Z,79.43
2022-11-04T06:06:48.456Z,79.08
2022-11-04T06:07:48.447Z,79.22
2022-11-04T06:08:48.421Z,79.29
2022-11-04T06:09:48.408Z,79.19
2022-11-04T06:10:48.416Z,79.39
2022-11-04T06:11:48.384Z,79.39
2022-11-04T06:12:48.378Z,79.19
2022-11-04T06:13:48.365Z,79.29
2022-11-04T06:14:48.419Z,79.05
2022-11-04T06:15:48.340Z,79.36
2022-11-04T06:16:48.491Z,79.25
2022-11-04T06:17:48.346Z,79.25
2022-11-04T06:18:48.335Z,79.25
2022-11-04T06:19:48.325Z,79.25
2022-11-04T06:20:48.282Z,79.25
2022-11-04T06:21:48.372Z,79.05
2022-11-04T06:22:48.292Z,79.05
2022-11-04T06:23:48.251Z,79.15
2022-11-04T06:24:48.245Z,79.42
2022-11-04T06:25:48.224Z,79.11
2022-11-04T06:26:48.215Z,79.42
2022-11-04T06:27:48.202Z,79.52
2022-11-04T06:28:48.204Z,79.08
2022-11-04T06:29:48.188Z,79.28
2022-11-04T06:30:48.190Z,79.22
2022-11-04T06:31:48.166Z,79.08
2022-11-04T06:32:48.157Z,78.87
2022-11-04T06:33:48.165Z,78.77
2022-11-04T06:34:48.174Z,78.67
2022-11-04T06:35:48.110Z,78.77
2022-11-04T06:36:48.106Z,78.77
2022-11-04T06:37:48.090Z,78.74
2022-11-04T06:38:48.091Z,78.53
2022-11-04T06:39:48.096Z,78.74
2022-11-04T06:40:48.088Z,78.63
2022-11-04T06:41:50.572Z,78.74
2022-11-04T06:42:48.040Z,78.63
2022-11-04T06:43:48.038Z,78.74
2022-11-04T06:44:48.917Z,78.53
2022-11-04T06:45:48.016Z,79.11
2022-11-04T06:46:48.089Z,78.70
2022-11-04T06:47:47.985Z,78.59
2022-11-04T06:48:47.972Z,78.49
2022-11-04T06:49:48.028Z,78.39
2022-11-04T06:50:47.953Z,78.28
2022-11-04T06:51:47.938Z,78.70
2022-11-04T06:52:47.976Z,78.45
2022-11-04T06:53:47.932Z,78.45
2022-11-04T06:54:47.915Z,78.76
2022-11-04T06:55:47.902Z,78.76
2022-11-04T06:56:47.880Z,78.56
2022-11-04T06:57:47.874Z,78.56
2022-11-04T06:58:47.887Z,78.76
2022-11-04T06:59:47.849Z,78.86
2022-11-04T07:00:47.898Z,78.15
2022-11-04T07:01:47.963Z,78.56
2022-11-04T07:02:47.875Z,78.25
2022-11-04T07:03:47.820Z,78.35
2022-11-04T07:04:47.836Z,78.25
2022-11-04T07:05:47.803Z,78.15
2022-11-04T07:06:47.762Z,78.35
2022-11-04T07:07:47.758Z,78.25
2022-11-04T07:08:47.743Z,78.25
2022-11-04T07:09:47.734Z,78.21
2022-11-04T07:10:47.774Z,78.42
2022-11-04T07:11:47.783Z,78.01
2022-11-04T07:12:47.709Z,78.31
2022-11-04T07:13:47.684Z,78.42
2022-11-04T07:14:47.682Z,78.35
2022-11-04T07:15:47.659Z,78.35
2022-11-04T07:16:47.974Z,78.56
2022-11-04T07:17:47.639Z,78.42
2022-11-04T07:18:47.664Z,78.52
2022-11-04T07:19:47.620Z,78.45
2022-11-04T07:20:47.603Z,78.42
2022-11-04T07:21:47.620Z,78.72
2022-11-04T07:22:47.612Z,78.31
2022-11-04T07:23:47.585Z,78.63
2022-11-04T07:24:47.560Z,78.52
2022-11-04T07:25:47.553Z,78.52
2022-11-04T07:26:47.631Z,78.31
2022-11-04T07:27:47.542Z,78.21
2022-11-04T07:28:47.548Z,78.52
2022-11-04T07:29:47.500Z,78.83
2022-11-04T07:30:47.494Z,78.52
2022-11-04T07:31:47.480Z,78.11
2022-11-04T07:32:47.471Z,78.49
2022-11-04T07:33:47.461Z,78.42
2022-11-04T07:34:47.466Z,78.17
2022-11-04T07:35:47.445Z,78.69
2022-11-04T07:36:47.431Z,78.59
2022-11-04T07:37:47.453Z,78.38
2022-11-04T07:38:47.518Z,78.17
2022-11-04T07:39:47.392Z,78.59
2022-11-04T07:40:47.442Z,78.49
2022-11-04T07:41:47.375Z,78.28
2022-11-04T07:42:47.404Z,78.38
2022-11-04T07:43:47.412Z,78.49
2022-11-04T07:44:47.339Z,78.42
2022-11-04T07:45:47.386Z,78.31
2022-11-04T07:46:47.348Z,78.17
2022-11-04T07:47:47.298Z,78.49
2022-11-04T07:48:47.298Z,78.49
2022-11-04T07:49:47.354Z,78.34
2022-11-04T07:50:47.263Z,78.49
2022-11-04T07:51:47.258Z,78.04
2022-11-04T07:52:47.272Z,78.14
2022-11-04T07:53:47.255Z,78.34
2022-11-04T07:54:47.227Z,78.14
2022-11-04T07:55:47.257Z,78.55
2022-11-04T07:56:47.203Z,78.14
2022-11-04T07:57:47.223Z,78.41
2022-11-04T07:58:47.240Z,78.55
2022-11-04T07:59:47.167Z,78.31
2022-11-04T08:00:47.168Z,78.31
2022-11-04T08:01:47.911Z,78.31
2022-11-04T08:02:47.235Z,78.11
2022-11-04T08:03:47.197Z,78.38
2022-11-04T08:04:47.148Z,78.17
2022-11-04T08:05:47.100Z,78.58
2022-11-04T08:06:47.087Z,78.07
2022-11-04T08:07:47.078Z,78.54
2022-11-04T08:08:47.138Z,78.13
2022-11-04T08:09:47.071Z,78.13
2022-11-04T08:10:47.055Z,78.13
2022-11-04T08:11:47.029Z,78.03
2022-11-04T08:12:47.048Z,78.00
2022-11-04T08:13:47.010Z,78.20
2022-11-04T08:14:47.016Z,78.20
2022-11-04T08:15:46.983Z,78.06
2022-11-04T08:16:47.000Z,78.00
2022-11-04T08:17:46.968Z,78.30
2022-11-04T08:18:46.987Z,78.27
2022-11-04T08:19:46.936Z,77.86
2022-11-04T08:20:47.018Z,77.82
2022-11-04T08:21:46.921Z,77.62
2022-11-04T08:22:46.948Z,77.72
2022-11-04T08:23:46.907Z,77.72
2022-11-04T08:24:46.875Z,77.82
2022-11-04T08:25:46.891Z,77.89
2022-11-04T08:26:46.856Z,77.82
2022-11-04T08:27:46.849Z,77.58
2022-11-04T08:28:46.945Z,77.58
2022-11-04T08:29:46.829Z,77.17
2022-11-04T08:30:46.804Z,77.58
2022-11-04T08:31:46.801Z,77.17
2022-11-04T08:32:46.786Z,77.68
2022-11-04T08:33:46.788Z,77.58
2022-11-04T08:34:46.826Z,77.48
2022-11-04T08:35:46.753Z,77.44
2022-11-04T08:36:46.750Z,77.78
2022-11-04T08:37:46.726Z,77.95
2022-11-04T08:38:46.784Z,78.30
2022-11-04T08:39:47.466Z,78.36
2022-11-04T08:40:46.802Z,78.16
2022-11-04T08:41:46.717Z,78.26
2022-11-04T08:42:46.679Z,78.16
2022-11-04T08:43:46.734Z,78.42
2022-11-04T08:44:46.655Z,78.02
2022-11-04T08:45:46.648Z,78.32
2022-11-04T08:46:46.930Z,78.12
2022-11-04T08:47:46.616Z,78.08
2022-11-04T08:48:46.661Z,78.42
2022-11-04T08:49:46.598Z,78.02
2022-11-04T08:50:46.702Z,78.22
2022-11-04T08:51:46.578Z,78.22
2022-11-04T08:52:46.692Z,78.39
2022-11-04T08:53:46.567Z,78.19
2022-11-04T08:54:46.544Z,78.28
2022-11-04T08:55:46.533Z,78.08
2022-11-04T08:56:46.548Z,78.19
2022-11-04T08:57:46.534Z,78.19
2022-11-04T08:58:46.597Z,78.08
2022-11-04T08:59:46.488Z,78.19
2022-11-04T09:00:46.496Z,78.05
2022-11-04T09:01:46.536Z,78.19
2022-11-04T09:02:46.446Z,77.94
2022-11-04T09:03:46.498Z,78.35
2022-11-04T09:04:46.522Z,77.94
2022-11-04T09:05:46.422Z,78.15
2022-11-04T09:06:46.402Z,77.84
2022-11-04T09:07:46.908Z,77.91
2022-11-04T09:08:47.143Z,77.84
2022-11-04T09:09:46.364Z,77.50
2022-11-04T09:10:46.499Z,77.60
2022-11-04T09:11:46.343Z,77.29
2022-11-04T09:12:46.337Z,77.40
2022-11-04T09:13:46.466Z,77.29
2022-11-04T09:14:46.388Z,77.50
2022-11-04T09:15:46.320Z,77.50
2022-11-04T09:16:46.374Z,77.50
2022-11-04T09:17:46.281Z,77.36
2022-11-04T09:18:46.300Z,77.06
2022-11-04T09:19:46.254Z,76.95
2022-11-04T09:20:46.249Z,77.16
2022-11-04T09:21:46.230Z,76.92
2022-11-04T09:22:46.263Z,77.12
2022-11-04T09:23:46.205Z,76.82
2022-11-04T09:24:46.266Z,76.82
2022-11-04T09:25:46.225Z,76.78
2022-11-04T09:26:46.178Z,76.68
2022-11-04T09:27:46.160Z,76.68
2022-11-04T09:28:46.284Z,76.98
2022-11-04T09:29:46.250Z,76.78
2022-11-04T09:30:46.123Z,76.78
2022-11-04T09:31:46.119Z,76.75
2022-11-04T09:32:51.492Z,76.44
2022-11-04T09:33:47.103Z,76.54
2022-11-04T09:34:46.103Z,76.51
2022-11-04T09:35:46.070Z,76.51
2022-11-04T09:36:46.080Z,76.81
2022-11-04T09:37:53.450Z,76.51
2022-11-04T09:38:46.084Z,76.81
2022-11-04T09:40:55.874Z,76.40
2022-11-04T09:41:55.758Z,76.51
2022-11-04T09:42:55.754Z,76.71
2022-11-04T09:43:55.870Z,76.91
2022-11-04T09:45:56.768Z,77.12
2022-11-04T09:46:55.676Z,77.32
2022-11-04T09:47:55.988Z,77.12
2022-11-04T09:48:55.655Z,76.91
2022-11-04T09:49:55.685Z,76.87
2022-11-04T09:50:55.655Z,76.57
2022-11-04T09:51:56.270Z,76.47
2022-11-04T09:52:55.655Z,76.64
2022-11-04T09:53:55.841Z,76.70
2022-11-04T09:54:55.696Z,76.29
2022-11-04T09:55:55.682Z,76.56
2022-11-04T09:56:55.587Z,76.77
2022-11-04T09:59:10.797Z,76.06
2022-11-04T10:00:10.867Z,76.16
2022-11-04T10:01:10.804Z,76.77
2022-11-04T10:02:10.847Z,76.43
2022-11-04T10:03:11.065Z,76.32
2022-11-04T10:04:10.713Z,76.43
2022-11-04T10:05:10.739Z,76.53
2022-11-04T10:06:10.723Z,76.63
2022-11-04T10:07:10.682Z,76.50
2022-11-04T10:08:10.669Z,76.39
2022-11-04T10:09:10.664Z,76.59
2022-11-04T10:10:10.643Z,76.66
2022-11-04T10:11:10.666Z,76.56
2022-11-04T10:12:10.620Z,76.56
2022-11-04T10:13:11.060Z,76.56
2022-11-04T10:14:10.628Z,76.93
2022-11-04T10:15:10.588Z,76.52
2022-11-04T10:16:10.692Z,76.72
2022-11-04T10:17:10.580Z,76.66
2022-11-04T10:18:10.558Z,76.72
2022-11-04T10:19:10.559Z,76.52
2022-11-04T10:20:10.527Z,76.62
2022-11-04T10:21:10.521Z,76.72
2022-11-04T10:22:10.507Z,76.52
2022-11-04T10:23:11.050Z,76.52
2022-11-04T10:24:10.524Z,76.62
2022-11-04T10:25:10.473Z,76.72
2022-11-04T10:26:10.537Z,76.62
2022-11-04T10:27:10.465Z,77.03
2022-11-04T10:28:10.438Z,76.52
2022-11-04T10:29:10.463Z,75.61
2022-11-04T10:30:10.418Z,75.68
2022-11-04T10:31:10.408Z,75.48
2022-11-04T10:32:10.513Z,75.68
2022-11-04T10:33:10.824Z,75.78
2022-11-04T10:34:10.388Z,75.78
2022-11-04T10:35:10.452Z,75.57
2022-11-04T10:36:11.051Z,75.61
2022-11-04T10:37:10.342Z,76.32
2022-11-04T10:38:10.324Z,76.52
2022-11-04T10:39:10.314Z,76.42
2022-11-04T10:40:10.362Z,76.62
2022-11-04T10:41:10.333Z,76.62
2022-11-04T10:42:10.584Z,75.88
2022-11-04T10:43:10.626Z,75.68
2022-11-04T10:44:10.406Z,75.78
2022-11-04T10:45:10.247Z,75.54
2022-11-04T10:46:10.232Z,75.31
2022-11-04T10:47:10.482Z,75.40
2022-11-04T10:50:51.206Z,75.27
2022-11-04T10:51:50.920Z,74.87
2022-11-04T10:52:51.067Z,75.27
2022-11-04T10:53:51.124Z,74.76
2022-11-04T10:54:50.969Z,74.73
2022-11-04T10:55:50.928Z,75.43
2022-11-04T10:56:50.910Z,74.93
2022-11-04T10:57:50.895Z,74.90
2022-11-04T10:58:51.185Z,75.20
2022-11-04T10:59:50.838Z,74.76
2022-11-04T11:00:50.869Z,74.76
2022-11-04T11:01:50.982Z,74.76
2022-11-04T11:02:50.895Z,74.62
2022-11-04T11:03:50.769Z,74.96
2022-11-04T11:04:51.493Z,74.93
2022-11-04T11:05:50.738Z,74.93
2022-11-04T11:06:50.974Z,74.93
2022-11-04T11:07:50.861Z,74.73
2022-11-04T11:08:50.889Z,74.42
2022-11-04T11:09:53.771Z,74.29
2022-11-04T11:10:50.970Z,74.29
2022-11-04T11:11:50.669Z,74.49
2022-11-04T11:12:52.012Z,74.45
2022-11-04T11:13:50.761Z,74.05
2022-11-04T11:14:50.801Z,73.75
2022-11-04T11:15:50.726Z,73.95
2022-11-04T11:16:53.957Z,74.55
2022-11-04T11:17:50.618Z,74.45
2022-11-04T11:18:50.701Z,74.41
2022-11-04T11:19:50.712Z,74.21
2022-11-04T11:20:50.592Z,74.11
2022-11-04T11:21:50.734Z,74.41
2022-11-04T11:22:50.608Z,74.21
2022-11-04T11:23:50.561Z,74.11
2022-11-04T11:24:51.449Z,74.41
2022-11-04T11:25:50.608Z,74.21
2022-11-04T11:26:50.533Z,74.32
2022-11-04T11:27:50.500Z,74.62
2022-11-04T11:28:55.770Z,74.41
2022-11-04T11:29:51.472Z,74.82
2022-11-04T11:30:50.728Z,74.85
2022-11-04T11:31:50.535Z,74.75
2022-11-04T11:32:50.565Z,74.75
2022-11-04T11:33:50.524Z,74.65
2022-11-04T11:34:50.636Z,74.55
2022-11-04T11:35:50.392Z,74.65
2022-11-04T11:36:50.659Z,74.62
2022-11-04T11:37:50.537Z,74.72
2022-11-04T11:38:50.426Z,74.62
2022-11-04T11:42:12.116Z,73.98
2022-11-04T11:43:12.479Z,73.98
2022-11-04T11:44:12.140Z,74.18
2022-11-04T11:45:12.487Z,74.38
2022-11-04T11:46:11.862Z,74.58
2022-11-04T11:47:11.854Z,74.98
2022-11-04T11:48:12.463Z,74.38
2022-11-04T11:49:12.009Z,74.48
2022-11-04T11:50:11.808Z,74.24
2022-11-04T11:51:11.790Z,74.38
2022-11-04T11:52:11.804Z,74.44
2022-11-04T11:53:13.448Z,73.94
2022-11-04T11:54:11.919Z,73.94
2022-11-04T11:55:11.827Z,74.18
2022-11-04T11:56:11.800Z,74.04
2022-11-04T11:57:14.226Z,74.44
2022-11-04T12:01:22.004Z,74.28
2022-11-04T12:02:13.735Z,74.18
2022-11-04T12:03:13.100Z,74.38
2022-11-04T12:10:18.555Z,74.52
2022-11-04T12:11:12.575Z,74.72
2022-11-04T12:12:11.533Z,74.72
2022-11-04T12:13:18.606Z,74.52
2022-11-04T12:14:12.629Z,74.62
2022-11-04T12:15:11.503Z,74.52
2022-11-04T12:16:11.485Z,75.02
2022-11-04T12:17:11.629Z,74.72
2022-11-04T12:18:11.573Z,74.62
2022-11-04T12:19:11.453Z,74.72
2022-11-04T12:20:15.071Z,74.92
2022-11-04T12:21:12.008Z,74.82
2022-11-04T12:22:11.418Z,74.62
2022-11-04T12:23:12.142Z,74.72
2022-11-04T12:24:11.610Z,74.82
2022-11-04T12:25:11.588Z,74.52
2022-11-04T12:27:26.710Z,74.75
2022-11-04T12:29:52.734Z,74.79
2022-11-04T12:30:52.882Z,74.79
2022-11-04T12:33:51.722Z,74.99
2022-11-04T12:34:51.923Z,75.33
2022-11-04T12:37:53.368Z,75.16
2022-11-04T12:38:52.436Z,75.36
2022-11-04T12:39:52.463Z,75.80
2022-11-04T12:44:44.144Z,75.40
2022-11-04T12:45:43.171Z,75.84
2022-11-04T12:46:43.124Z,75.94
2022-11-04T12:54:10.299Z,75.71
2022-11-04T12:56:42.345Z,76.35
2022-11-04T12:57:42.024Z,76.55
2022-11-04T13:06:59.088Z,76.62
2022-11-04T13:07:58.806Z,76.42
2022-11-04T13:08:58.723Z,76.32
2022-11-04T13:09:58.592Z,76.12
2022-11-04T13:10:58.713Z,76.22
2022-11-04T13:11:58.574Z,76.18
2022-11-04T13:12:58.590Z,76.48
2022-11-04T13:15:39.029Z,75.78
2022-11-04T13:16:38.393Z,75.74
2022-11-04T13:17:38.364Z,75.78
2022-11-04T13:18:38.381Z,76.18
2022-11-04T13:19:38.360Z,76.08
2022-11-04T13:20:38.328Z,76.25
2022-11-04T13:21:38.314Z,76.04
2022-11-04T13:22:38.320Z,75.74
2022-11-04T13:23:38.325Z,75.74
2022-11-04T13:24:38.340Z,75.54
2022-11-04T13:27:04.385Z,75.74
2022-11-04T13:28:04.370Z,75.54
2022-11-04T13:29:08.657Z,75.88
2022-11-04T13:30:04.400Z,75.74
2022-11-04T13:31:04.343Z,75.74
2022-11-04T13:32:04.323Z,75.34
2022-11-04T13:33:04.321Z,75.98
2022-11-04T13:34:04.394Z,75.88
2022-11-04T13:35:04.292Z,75.84
2022-11-04T13:36:04.309Z,75.88
2022-11-04T13:37:04.265Z,75.88
2022-11-04T13:38:04.281Z,75.98
2022-11-04T13:39:04.257Z,75.98
2022-11-04T13:40:04.238Z,75.68